Time;durP1;ratioP1;P1;durP2;ratioP2;P2;SDS_P1;SDS_P2;PMS_P1;PMS_P2;Temp;Humidity;BMP_temperature;BMP_pressure;BME280_temperature;BME280_humidity;BME280_pressure;Samples;Min_cycle;Max_cycle;Signal;HPM_P1;HPM_P2
2023/09/25 00:00:16;;;;;;;5.40;2.60;;;;;;;18.15;99.83;97861.83;109938;1244;69257;-62
2023/09/25 00:03:08;;;;;;;5.80;3.00;;;;;;;18.12;99.50;97857.86;109945;1243;59763;-61
2023/09/25 00:05:40;;;;;;;6.30;2.30;;;;;;;18.10;100.00;97855.55;110021;1243;59764;-60
2023/09/25 00:08:14;;;;;;;3.60;2.20;;;;;;;18.07;99.66;97852.13;109891;1244;71359;-60
2023/09/25 00:10:44;;;;;;;6.80;2.90;;;;;;;18.04;100.00;97847.66;110110;1243;68574;-61
2023/09/25 00:13:20;;;;;;;6.20;2.30;;;;;;;18.02;99.78;97847.64;110004;1244;69183;-61
2023/09/25 00:15:52;;;;;;;3.90;1.80;;;;;;;18.02;98.70;97845.58;110031;1244;59683;-61
2023/09/25 00:18:25;;;;;;;3.70;2.10;;;;;;;18.01;97.85;97838.81;110089;1244;59695;-61
2023/09/25 00:20:58;;;;;;;3.50;2.10;;;;;;;17.99;97.55;97840.77;109891;1244;71431;-60
2023/09/25 00:23:31;;;;;;;3.20;1.70;;;;;;;17.97;97.51;97839.52;109902;1245;69837;-60
2023/09/25 00:26:04;;;;;;;4.50;2.10;;;;;;;17.94;97.87;97834.77;109894;1246;68305;-61
2023/09/25 00:28:35;;;;;;;4.40;2.00;;;;;;;17.89;97.91;97833.27;109989;1243;59689;-62
2023/09/25 00:31:11;;;;;;;3.90;2.30;;;;;;;17.82;98.96;97827.59;110022;1244;59703;-62
2023/09/25 00:33:45;;;;;;;4.00;2.20;;;;;;;17.73;99.71;97827.16;110020;1244;70903;-60
2023/09/25 00:36:17;;;;;;;3.20;1.80;;;;;;;17.67;100.00;97827.60;109817;1244;69202;-61
2023/09/25 00:38:57;;;;;;;4.30;1.90;;;;;;;17.58;100.00;97825.08;110012;1243;68562;-63
2023/09/25 00:41:28;;;;;;;5.90;2.10;;;;;;;17.49;100.00;97825.95;109951;1243;60097;-62
2023/09/25 00:44:00;;;;;;;4.20;2.00;;;;;;;17.39;100.00;97828.16;109895;1245;59691;-62
2023/09/25 00:46:33;;;;;;;3.40;1.70;;;;;;;17.29;100.00;97824.07;109967;1242;70672;-61
2023/09/25 00:49:05;;;;;;;2.90;1.90;;;;;;;17.20;100.00;97826.30;110099;1244;67524;-61
2023/09/25 00:51:38;;;;;;;3.90;2.20;;;;;;;17.11;100.00;97826.00;109998;1244;68787;-60
2023/09/25 00:54:17;;;;;;;5.10;2.20;;;;;;;17.00;100.00;97826.28;109934;1243;59725;-61
2023/09/25 00:57:12;;;;;;;4.70;2.00;;;;;;;16.88;100.00;97829.86;110022;1243;59679;-61
2023/09/25 00:59:56;;;;;;;3.20;1.70;;;;;;;16.80;100.00;97827.74;109915;1243;71536;-60
2023/09/25 01:02:31;;;;;;;3.90;1.80;;;;;;;16.74;100.00;97827.80;109985;1246;68460;-60
2023/09/25 01:05:09;;;;;;;3.40;2.30;;;;;;;16.68;100.00;97827.80;110024;1245;69125;-61
2023/09/25 01:07:41;;;;;;;4.90;2.10;;;;;;;16.62;100.00;97831.48;109747;1248;59767;-60
2023/09/25 01:10:19;;;;;;;5.20;2.10;;;;;;;16.57;100.00;97833.58;109966;1246;59734;-60
2023/09/25 01:12:54;;;;;;;4.00;2.10;;;;;;;16.49;100.00;97834.05;109784;1243;71480;-60
2023/09/25 01:15:27;;;;;;;4.30;2.10;;;;;;;16.43;100.00;97828.16;109740;1243;68787;-60
2023/09/25 01:17:58;;;;;;;4.60;2.30;;;;;;;16.36;100.00;97831.97;109790;1245;68364;-61
2023/09/25 01:20:32;;;;;;;3.70;2.30;;;;;;;16.29;100.00;97829.57;109925;1246;59707;-60
2023/09/25 01:23:07;;;;;;;6.30;3.00;;;;;;;16.22;100.00;97828.04;109860;1242;59761;-61
2023/09/25 01:25:45;;;;;;;3.50;2.10;;;;;;;16.17;100.00;97830.10;109786;1242;71294;-60
2023/09/25 01:28:17;;;;;;;5.10;2.30;;;;;;;16.12;100.00;97828.27;109872;1243;68794;-63
2023/09/25 01:30:49;;;;;;;4.10;2.20;;;;;;;16.08;100.00;97828.62;109926;1242;69318;-61
2023/09/25 01:33:22;;;;;;;4.90;2.50;;;;;;;16.05;100.00;97826.91;109911;1243;59756;-62
2023/09/25 01:35:56;;;;;;;6.70;2.40;;;;;;;16.01;100.00;97827.27;109763;1244;59633;-61
2023/09/25 01:38:28;;;;;;;4.90;2.50;;;;;;;15.99;100.00;97826.60;109918;1244;71424;-61
2023/09/25 01:40:59;;;;;;;4.50;2.60;;;;;;;15.96;100.00;97824.27;109992;1244;69386;-61
2023/09/25 01:43:33;;;;;;;4.40;3.00;;;;;;;15.91;100.00;97829.95;110055;1244;69545;-61
2023/09/25 01:46:04;;;;;;;5.40;2.60;;;;;;;15.84;100.00;97832.35;109955;1243;59706;-61
2023/09/25 01:48:37;;;;;;;5.20;2.60;;;;;;;15.80;100.00;97833.70;109793;1246;59732;-61
2023/09/25 01:51:10;;;;;;;5.30;2.80;;;;;;;15.75;100.00;97832.16;109801;1243;70786;-60
2023/09/25 01:53:45;;;;;;;5.30;2.90;;;;;;;15.70;100.00;97829.83;109853;1243;69392;-62
2023/09/25 01:56:19;;;;;;;3.40;2.30;;;;;;;15.65;100.00;97826.77;109676;1243;69141;-61
2023/09/25 01:58:50;;;;;;;4.60;2.20;;;;;;;15.60;100.00;97825.39;109728;1247;59735;-61
2023/09/25 02:01:21;;;;;;;4.70;2.40;;;;;;;15.56;100.00;97830.34;109858;1245;59667;-61
2023/09/25 02:03:54;;;;;;;4.30;2.50;;;;;;;15.49;100.00;97833.00;109862;1244;70710;-61
2023/09/25 02:06:26;;;;;;;4.00;2.10;;;;;;;15.44;100.00;97832.42;109868;1245;69373;-61
2023/09/25 02:08:59;;;;;;;4.70;2.40;;;;;;;15.39;100.00;97834.45;109956;1245;68255;-61
2023/09/25 02:11:29;;;;;;;5.50;2.80;;;;;;;15.35;100.00;97835.14;110040;1244;59753;-61
2023/09/25 02:14:01;;;;;;;3.50;2.10;;;;;;;15.33;100.00;97835.66;109953;1247;59678;-61
2023/09/25 02:16:32;;;;;;;5.30;2.50;;;;;;;15.31;100.00;97831.12;110011;1244;70708;-61
2023/09/25 02:19:04;;;;;;;4.50;2.90;;;;;;;15.28;100.00;97836.95;110024;1244;69709;-61
2023/09/25 02:21:40;;;;;;;4.70;2.60;;;;;;;15.25;100.00;97837.69;110121;1244;68388;-61
2023/09/25 02:24:15;;;;;;;4.40;2.50;;;;;;;15.22;100.00;97842.03;109986;1243;59750;-61
2023/09/25 02:26:57;;;;;;;6.10;2.60;;;;;;;15.16;100.00;97841.27;109815;1243;59681;-61
2023/09/25 02:29:29;;;;;;;4.20;2.30;;;;;;;15.12;100.00;97841.43;109841;1245;71576;-61
2023/09/25 02:32:02;;;;;;;4.90;2.50;;;;;;;15.08;100.00;97840.41;109843;1245;69345;-62
2023/09/25 02:34:33;;;;;;;4.30;2.30;;;;;;;15.06;100.00;97843.77;109947;1245;69393;-61
2023/09/25 02:37:06;;;;;;;4.60;2.60;;;;;;;15.02;100.00;97842.29;109787;1246;59733;-59
2023/09/25 02:39:37;;;;;;;5.10;2.30;;;;;;;15.01;100.00;97843.73;110016;1244;59727;-61
2023/09/25 02:42:10;;;;;;;4.80;2.40;;;;;;;14.99;100.00;97843.93;109966;1245;70244;-62
2023/09/25 02:44:45;;;;;;;3.10;2.10;;;;;;;14.98;100.00;97844.20;110039;1244;68902;-62
2023/09/25 02:47:16;;;;;;;3.50;2.10;;;;;;;14.97;100.00;97845.89;109844;1246;69465;-60
2023/09/25 02:49:48;;;;;;;2.80;2.00;;;;;;;14.96;100.00;97845.28;109787;1247;59745;-61
2023/09/25 02:52:20;;;;;;;5.10;2.90;;;;;;;14.94;100.00;97844.55;109808;1244;59724;-60
2023/09/25 02:54:51;;;;;;;4.40;2.80;;;;;;;14.92;100.00;97845.64;109986;1244;71381;-61
2023/09/25 02:57:23;;;;;;;6.60;2.80;;;;;;;14.92;100.00;97851.77;109809;1244;69356;-61
2023/09/25 02:59:54;;;;;;;3.40;2.20;;;;;;;14.91;100.00;97857.45;109822;1245;69296;-61
2023/09/25 03:02:27;;;;;;;3.00;2.20;;;;;;;14.90;100.00;97858.22;109735;1245;59711;-60
2023/09/25 03:04:59;;;;;;;4.50;2.70;;;;;;;14.88;100.00;97864.58;109908;1246;59704;-60
2023/09/25 03:07:30;;;;;;;4.20;2.70;;;;;;;14.79;100.00;97864.54;109896;1246;70779;-61
2023/09/25 03:10:01;;;;;;;3.50;2.50;;;;;;;14.74;100.00;97865.66;109753;1244;69138;-61
2023/09/25 03:12:32;;;;;;;4.20;2.50;;;;;;;14.70;100.00;97861.79;109706;1245;69180;-60
2023/09/25 03:15:05;;;;;;;4.00;2.50;;;;;;;14.67;100.00;97870.09;109749;1244;59701;-60
2023/09/25 03:17:37;;;;;;;3.80;2.50;;;;;;;14.65;100.00;97871.90;109711;1245;59982;-61
2023/09/25 03:20:14;;;;;;;4.40;2.30;;;;;;;14.62;100.00;97873.18;109824;1243;70727;-62
2023/09/25 03:22:47;;;;;;;3.10;2.60;;;;;;;14.62;100.00;97874.54;109816;1245;69262;-61
2023/09/25 03:25:19;;;;;;;4.00;2.20;;;;;;;14.60;100.00;97877.17;109821;1244;69528;-60
2023/09/25 03:27:50;;;;;;;3.80;2.10;;;;;;;14.59;100.00;97875.70;109807;1247;59786;-61
2023/09/25 03:30:21;;;;;;;4.40;2.50;;;;;;;14.59;100.00;97879.23;109750;1245;60167;-61
2023/09/25 03:32:54;;;;;;;5.40;2.40;;;;;;;14.60;100.00;97881.10;109817;1243;71428;-61
2023/09/25 03:35:25;;;;;;;5.80;3.20;;;;;;;14.58;100.00;97883.11;110008;1246;69091;-61
2023/09/25 03:37:57;;;;;;;4.40;2.50;;;;;;;14.56;100.00;97882.65;109986;1246;69278;-60
2023/09/25 03:40:29;;;;;;;4.60;3.00;;;;;;;14.51;100.00;97886.18;110095;1243;59732;-62
2023/09/25 03:42:59;;;;;;;4.60;2.40;;;;;;;14.47;100.00;97887.55;110001;1246;59738;-62
2023/09/25 03:45:30;;;;;;;3.80;2.20;;;;;;;14.43;100.00;97889.65;109890;1244;71424;-61
2023/09/25 03:48:00;;;;;;;5.20;2.70;;;;;;;14.41;100.00;97891.20;109940;1242;68789;-64
2023/09/25 03:50:29;;;;;;;6.00;2.20;;;;;;;14.37;100.00;97890.66;110093;1242;69881;-62
2023/09/25 03:53:01;;;;;;;5.50;2.40;;;;;;;14.33;100.00;97890.73;110062;1247;59713;-61
2023/09/25 03:55:30;;;;;;;3.50;2.40;;;;;;;14.29;100.00;97893.94;109998;1244;59704;-61
2023/09/25 03:58:00;;;;;;;5.50;2.70;;;;;;;14.24;100.00;97892.14;110036;1243;71966;-60
2023/09/25 04:00:31;;;;;;;4.30;2.50;;;;;;;14.23;100.00;97892.59;109983;1243;68501;-61
2023/09/25 04:03:01;;;;;;;4.90;2.20;;;;;;;14.22;100.00;97893.17;109825;1253;69303;-61
2023/09/25 04:05:33;;;;;;;4.90;2.50;;;;;;;14.24;100.00;97899.89;109755;1247;59636;-61
2023/09/25 04:08:05;;;;;;;3.40;2.30;;;;;;;14.26;100.00;97901.66;109837;1243;59670;-61
2023/09/25 04:10:35;;;;;;;5.10;2.40;;;;;;;14.30;100.00;97900.31;109920;1243;70471;-61
2023/09/25 04:13:08;;;;;;;3.50;2.60;;;;;;;14.33;100.00;97902.55;109779;1243;69371;-61
2023/09/25 04:15:38;;;;;;;5.60;2.80;;;;;;;14.34;100.00;97906.47;109876;1243;69467;-61
2023/09/25 04:18:08;;;;;;;5.60;3.30;;;;;;;14.33;100.00;97904.79;109817;1244;59739;-61
2023/09/25 04:20:38;;;;;;;6.50;3.30;;;;;;;14.33;100.00;97908.11;109811;1243;59733;-62
2023/09/25 04:23:08;;;;;;;8.90;3.40;;;;;;;14.33;100.00;97908.98;110063;1244;71974;-62
2023/09/25 04:25:37;;;;;;;7.20;3.40;;;;;;;14.32;100.00;97911.85;110144;1245;69201;-61
2023/09/25 04:28:07;;;;;;;5.30;2.90;;;;;;;14.32;100.00;97916.73;109944;1244;68913;-62
2023/09/25 04:30:38;;;;;;;4.30;2.50;;;;;;;14.35;100.00;97917.44;110055;1242;59698;-60
2023/09/25 04:33:07;;;;;;;4.30;2.90;;;;;;;14.38;100.00;97915.83;109934;1242;59718;-61
2023/09/25 04:35:38;;;;;;;3.70;2.50;;;;;;;14.42;100.00;97920.36;110119;1243;71434;-61
2023/09/25 04:38:08;;;;;;;5.90;2.90;;;;;;;14.49;100.00;97917.01;110090;1244;69225;-60
2023/09/25 04:40:38;;;;;;;4.20;3.20;;;;;;;14.58;100.00;97920.89;109972;1242;69386;-62
2023/09/25 04:43:09;;;;;;;4.50;3.00;;;;;;;14.69;100.00;97920.99;109980;1244;59737;-62
2023/09/25 04:45:38;;;;;;;5.10;3.10;;;;;;;14.85;100.00;97924.48;110038;1244;59743;-61
2023/09/25 04:48:09;;;;;;;4.00;2.80;;;;;;;15.01;100.00;97928.08;109862;1244;71993;-62
2023/09/25 04:50:40;;;;;;;3.70;2.30;;;;;;;15.21;100.00;97928.33;109969;1244;69815;-61
2023/09/25 04:53:10;;;;;;;4.20;2.40;;;;;;;15.42;100.00;97930.45;109949;1245;69150;-61
2023/09/25 04:55:41;;;;;;;4.70;2.50;;;;;;;15.61;100.00;97928.99;109998;1244;59687;-61
2023/09/25 04:58:11;;;;;;;4.10;2.40;;;;;;;15.86;100.00;97934.27;109914;1244;59684;-61
2023/09/25 05:00:41;;;;;;;5.70;2.50;;;;;;;16.09;100.00;97933.11;109918;1244;71430;-61
2023/09/25 05:03:11;;;;;;;4.10;2.30;;;;;;;16.30;100.00;97937.61;109997;1244;69207;-61
2023/09/25 05:05:42;;;;;;;4.10;2.40;;;;;;;16.53;100.00;97937.36;110163;1244;68553;-62
2023/09/25 05:08:12;;;;;;;6.90;3.00;;;;;;;16.69;100.00;97941.59;109910;1244;59741;-61
2023/09/25 05:10:42;;;;;;;5.30;2.60;;;;;;;16.86;100.00;97941.28;110103;1244;59599;-63
2023/09/25 05:13:11;;;;;;;4.00;2.50;;;;;;;17.10;100.00;97941.58;110157;1244;73230;-62
2023/09/25 05:15:41;;;;;;;6.30;3.00;;;;;;;17.39;100.00;97944.92;110003;1243;69270;-61
2023/09/25 05:18:11;;;;;;;6.90;3.30;;;;;;;17.71;100.00;97945.30;109940;1242;70233;-62
2023/09/25 05:20:42;;;;;;;5.60;2.80;;;;;;;17.85;100.00;97943.52;110127;1241;59716;-62
2023/09/25 05:23:11;;;;;;;7.40;3.10;;;;;;;18.20;100.00;97944.61;110092;1245;59642;-62
2023/09/25 05:25:41;;;;;;;5.20;2.80;;;;;;;18.52;100.00;97948.42;110119;1242;70668;-62
2023/09/25 05:28:10;;;;;;;7.20;3.60;;;;;;;18.68;100.00;97952.79;110126;1242;68555;-62
2023/09/25 05:30:40;;;;;;;;;;;;;;;18.67;100.00;97958.36;110079;1244;69248;-62
2023/09/25 05:33:09;;;;;;;8.10;2.90;;;;;;;18.77;100.00;97960.77;110146;1241;59694;-62
2023/09/25 05:35:39;;;;;;;8.00;3.20;;;;;;;18.85;99.93;97959.52;110101;1241;59692;-61
2023/09/25 05:38:08;;;;;;;;;;;;;;;19.05;99.92;97963.73;110130;1244;70776;-61
2023/09/25 05:40:38;;;;;;;;;;;;;;;19.21;99.61;97962.06;110101;1241;69173;-61
2023/09/25 05:43:08;;;;;;;4.80;2.70;;;;;;;19.27;100.00;97965.36;110083;1243;69764;-61
2023/09/25 05:45:38;;;;;;;5.70;2.50;;;;;;;19.34;99.58;97967.34;110085;1244;59709;-61
2023/09/25 05:48:09;;;;;;;4.30;2.00;;;;;;;19.70;100.00;97972.40;110075;1245;59682;-62
2023/09/25 05:50:39;;;;;;;4.20;2.30;;;;;;;20.00;99.97;97967.89;110129;1244;71263;-60
2023/09/25 05:53:08;;;;;;;5.40;3.10;;;;;;;20.11;97.81;97971.56;110107;1244;69805;-61
2023/09/25 05:55:38;;;;;;;6.40;3.10;;;;;;;20.05;95.75;97973.27;110112;1243;70042;-61
2023/09/25 05:58:07;;;;;;;7.40;3.00;;;;;;;19.95;96.05;97976.71;110133;1241;60172;-61
2023/09/25 06:00:44;;;;;;;8.20;3.20;;;;;;;20.07;94.85;97976.73;110091;1241;59700;-62
2023/09/25 06:03:14;;;;;;;9.20;3.50;;;;;;;20.20;94.61;97977.79;110121;1245;71914;-61
2023/09/25 06:05:44;;;;;;;3.90;2.70;;;;;;;20.16;93.64;97975.88;110116;1244;68455;-63
2023/09/25 06:08:14;;;;;;;4.70;2.50;;;;;;;20.28;93.22;97977.89;110087;1244;69099;-61
2023/09/25 06:10:45;;;;;;;6.90;2.80;;;;;;;20.49;91.99;97979.82;110045;1243;59770;-59
2023/09/25 06:13:16;;;;;;;5.20;2.60;;;;;;;20.76;90.22;97979.42;110086;1243;59674;-61
2023/09/25 06:15:46;;;;;;;4.40;2.70;;;;;;;21.06;89.00;97983.05;110079;1241;71814;-61
2023/09/25 06:18:17;;;;;;;6.30;2.90;;;;;;;21.32;87.23;97982.73;110081;1243;68394;-60
2023/09/25 06:20:48;;;;;;;3.90;2.90;;;;;;;21.58;88.03;97987.89;110120;1243;69347;-62
2023/09/25 06:23:18;;;;;;;5.40;2.70;;;;;;;21.93;86.53;97988.80;110075;1244;59749;-62
2023/09/25 06:25:48;;;;;;;5.80;2.90;;;;;;;22.05;82.97;97986.88;110053;1243;59751;-62
2023/09/25 06:28:20;;;;;;;5.40;2.80;;;;;;;22.33;82.66;97984.79;110076;1243;71276;-62
2023/09/25 06:30:49;;;;;;;6.70;2.80;;;;;;;22.64;82.82;97986.45;110081;1243;69203;-61
2023/09/25 06:33:19;;;;;;;4.80;2.20;;;;;;;22.95;82.89;97987.90;110082;1251;69929;-60
2023/09/25 06:35:49;;;;;;;6.10;2.60;;;;;;;23.34;82.83;97983.91;110077;1244;59747;-61
2023/09/25 06:38:19;;;;;;;8.30;3.40;;;;;;;23.53;77.56;97984.77;110063;1243;59712;-61
2023/09/25 06:40:48;;;;;;;5.80;2.60;;;;;;;23.06;75.72;97985.50;110129;1244;71560;-61
2023/09/25 06:43:17;;;;;;;;;;;;;;;23.28;77.06;97990.70;110152;1243;69872;-61
2023/09/25 06:45:47;;;;;;;5.80;2.70;;;;;;;23.36;76.80;97990.80;110061;1244;69861;-61
2023/09/25 06:48:18;;;;;;;4.70;2.90;;;;;;;23.40;75.39;97991.81;110058;1241;59673;-61
2023/09/25 06:50:47;;;;;;;6.00;3.00;;;;;;;23.76;75.26;97994.01;110102;1244;59723;-61
2023/09/25 06:53:17;;;;;;;7.00;2.90;;;;;;;24.09;74.93;97994.71;110110;1242;70982;-61
2023/09/25 06:55:47;;;;;;;7.00;3.90;;;;;;;23.97;74.03;97998.93;110092;1245;69876;-61
2023/09/25 06:58:16;;;;;;;6.50;3.00;;;;;;;24.13;73.66;97996.30;110072;1244;69692;-61
2023/09/25 07:00:46;;;;;;;7.20;2.80;;;;;;;24.01;72.96;98003.11;110087;1244;59706;-61
2023/09/25 07:03:26;;;;;;;7.30;3.10;;;;;;;24.00;73.12;98007.88;110095;1243;59774;-62
2023/09/25 07:05:56;;;;;;;6.50;2.60;;;;;;;24.38;72.88;98005.87;110053;1242;72017;-62
2023/09/25 07:08:27;;;;;;;6.50;3.20;;;;;;;24.44;70.78;98009.52;110079;1241;68574;-61
2023/09/25 07:11:00;;;;;;;4.90;3.10;;;;;;;24.54;71.02;98010.30;110067;1241;69606;-61
2023/09/25 07:13:32;;;;;;;6.20;3.00;;;;;;;24.46;70.45;98012.11;110113;1244;59685;-62
2023/09/25 07:16:03;;;;;;;7.80;3.40;;;;;;;24.60;71.17;98010.09;110114;1242;59811;-61
2023/09/25 07:18:33;;;;;;;8.90;3.70;;;;;;;24.97;71.37;98009.17;110134;1243;71354;-62
2023/09/25 07:21:05;;;;;;;6.60;3.40;;;;;;;25.05;68.25;98011.23;110155;1243;69388;-63
2023/09/25 07:23:34;;;;;;;8.30;3.80;;;;;;;25.10;68.08;98012.34;110097;1244;68290;-63
2023/09/25 07:26:09;;;;;;;7.30;4.00;;;;;;;25.09;67.36;98013.20;110185;1245;59747;-62
2023/09/25 07:28:39;;;;;;;7.10;4.40;;;;;;;25.35;67.19;98013.14;110127;1244;59640;-62
2023/09/25 07:31:09;;;;;;;6.80;3.60;;;;;;;25.86;65.28;98013.42;110133;1243;72156;-62
2023/09/25 07:33:39;;;;;;;6.00;3.90;;;;;;;25.84;64.32;98011.41;110132;1243;69156;-61
2023/09/25 07:36:09;;;;;;;7.30;3.90;;;;;;;25.97;63.59;98018.25;110095;1243;69272;-61
2023/09/25 07:38:39;;;;;;;5.40;3.70;;;;;;;25.94;62.57;98016.69;110126;1241;59705;-61
2023/09/25 07:41:12;;;;;;;8.20;4.00;;;;;;;26.47;61.75;98015.63;110152;1244;59693;-61
2023/09/25 07:43:42;;;;;;;7.10;4.50;;;;;;;26.61;60.05;98015.11;110113;1244;70444;-61
2023/09/25 07:46:25;;;;;;;6.30;4.30;;;;;;;26.86;58.74;98015.33;110151;1243;69246;-61
2023/09/25 07:48:58;;;;;;;7.20;4.20;;;;;;;26.83;57.77;98012.59;110148;1244;69730;-60
2023/09/25 07:51:29;;;;;;;7.50;4.40;;;;;;;27.07;57.68;98014.28;110132;1246;59704;-61
2023/09/25 07:53:59;;;;;;;5.70;4.00;;;;;;;27.37;54.70;98014.42;110177;1244;59666;-61
2023/09/25 07:56:28;;;;;;;6.30;4.20;;;;;;;27.54;55.96;98016.42;110124;1244;71947;-62
2023/09/25 07:58:58;;;;;;;6.00;4.10;;;;;;;27.77;53.30;98016.40;110153;1245;69629;-63
2023/09/25 08:01:30;;;;;;;5.60;4.50;;;;;;;28.27;52.49;98019.52;110112;1243;69869;-63
2023/09/25 08:04:00;;;;;;;5.90;4.00;;;;;;;28.89;51.04;98021.16;110125;1244;59728;-63
2023/09/25 08:06:30;;;;;;;7.90;4.50;;;;;;;29.06;48.52;98015.16;110103;1244;59691;-62
2023/09/25 08:09:00;;;;;;;6.00;4.40;;;;;;;29.00;47.87;98019.11;110171;1244;70511;-63
2023/09/25 08:11:29;;;;;;;6.00;4.10;;;;;;;28.61;47.10;98016.72;110086;1244;69226;-62
2023/09/25 08:13:59;;;;;;;5.80;4.70;;;;;;;29.52;47.12;98017.88;110176;1245;69261;-62
2023/09/25 08:16:28;;;;;;;7.40;4.30;;;;;;;30.00;46.58;98016.69;110144;1243;59749;-63
2023/09/25 08:18:57;;;;;;;6.10;4.50;;;;;;;30.54;47.08;98016.02;110121;1242;59689;-63
2023/09/25 08:21:26;;;;;;;6.60;4.50;;;;;;;30.98;44.29;98011.64;110150;1243;71324;-63
2023/09/25 08:23:56;;;;;;;5.70;4.10;;;;;;;30.00;42.96;98011.52;110151;1245;68242;-63
2023/09/25 08:26:26;;;;;;;5.60;3.90;;;;;;;29.12;44.77;98007.58;110116;1241;69902;-63
2023/09/25 08:28:57;;;;;;;4.60;3.60;;;;;;;30.03;45.06;98013.30;110157;1245;59735;-63
2023/09/25 08:31:28;;;;;;;6.30;4.50;;;;;;;30.71;44.02;98009.85;110213;1241;59735;-63
2023/09/25 08:33:58;;;;;;;7.80;5.50;;;;;;;30.32;44.06;98012.44;110135;1243;71955;-63
2023/09/25 08:36:27;;;;;;;8.30;5.10;;;;;;;30.34;43.51;98008.43;110127;1243;69225;-63
2023/09/25 08:38:57;;;;;;;6.80;4.80;;;;;;;30.14;43.34;98007.63;110126;1245;69253;-63
2023/09/25 08:41:29;;;;;;;6.90;4.90;;;;;;;30.20;44.25;98006.27;110157;1244;59705;-62
2023/09/25 08:43:59;;;;;;;7.80;4.30;;;;;;;30.87;43.23;97998.34;110140;1243;59739;-64
2023/09/25 08:46:28;;;;;;;4.90;3.90;;;;;;;30.99;42.18;97996.77;110131;1244;72290;-64
2023/09/25 08:48:59;;;;;;;4.20;3.80;;;;;;;31.39;43.09;97998.70;110125;1244;69804;-63
2023/09/25 08:51:34;;;;;;;7.80;4.80;;;;;;;31.77;40.74;97997.26;110188;1244;68450;-63
2023/09/25 08:54:06;;;;;;;6.70;4.00;;;;;;;31.49;39.84;97988.99;110101;1244;59813;-62
2023/09/25 08:56:37;;;;;;;7.50;4.00;;;;;;;31.88;40.15;97989.04;110102;1244;59649;-62
2023/09/25 08:59:11;;;;;;;5.50;3.90;;;;;;;32.20;38.35;97983.22;110087;1244;71329;-62
2023/09/25 09:01:40;;;;;;;5.90;4.00;;;;;;;32.36;37.83;97981.88;110141;1241;68339;-62
2023/09/25 09:04:10;;;;;;;5.10;4.20;;;;;;;33.12;39.31;97984.05;110125;1245;69890;-63
2023/09/25 09:06:40;;;;;;;7.90;5.50;;;;;;;33.25;37.26;97984.56;109533;1243;713184;-62
2023/09/25 09:09:13;;;;;;;7.40;4.70;;;;;;;32.82;37.60;97989.04;110171;1241;59750;-63
2023/09/25 09:11:50;;;;;;;6.50;4.50;;;;;;;32.98;38.18;97987.03;110137;1245;71320;-62
2023/09/25 09:14:32;;;;;;;6.40;4.50;;;;;;;32.85;37.72;97987.46;110190;1244;68494;-63
2023/09/25 09:17:06;;;;;;;8.90;4.50;;;;;;;32.68;37.86;97988.11;110114;1245;68272;-62
2023/09/25 09:19:48;;;;;;;6.20;4.60;;;;;;;31.46;39.66;97986.69;110127;1246;59702;-63
2023/09/25 09:22:18;;;;;;;5.90;4.30;;;;;;;30.85;40.71;97984.77;110120;1244;59696;-62
2023/09/25 09:24:56;;;;;;;5.60;4.40;;;;;;;31.05;40.33;97985.80;110226;1245;71238;-62
2023/09/25 09:27:26;;;;;;;7.80;4.90;;;;;;;30.70;40.88;97984.55;110104;1243;69209;-63
2023/09/25 09:29:57;;;;;;;6.30;5.10;;;;;;;31.14;40.14;97978.83;110128;1247;69393;-63
2023/09/25 09:32:28;;;;;;;8.20;4.90;;;;;;;30.95;40.76;97978.14;110177;1243;59705;-64
2023/09/25 09:35:05;;;;;;;6.10;4.10;;;;;;;30.68;41.48;97977.70;110146;1244;59753;-62
2023/09/25 09:37:35;;;;;;;6.10;4.00;;;;;;;31.23;40.79;97975.14;110154;1246;71987;-63
2023/09/25 09:40:11;;;;;;;6.10;4.20;;;;;;;31.89;39.81;97975.98;110171;1244;69847;-63
2023/09/25 09:42:43;;;;;;;5.70;4.20;;;;;;;32.51;38.17;97972.95;110078;1245;69876;-63
2023/09/25 09:45:12;;;;;;;6.70;5.00;;;;;;;32.15;38.12;97976.05;110121;1245;59695;-62
2023/09/25 09:47:44;;;;;;;4.70;4.00;;;;;;;32.21;38.23;97975.34;110103;1244;59649;-62
2023/09/25 09:50:22;;;;;;;6.90;4.30;;;;;;;31.43;39.46;97971.02;110140;1241;70707;-62
2023/09/25 09:52:52;;;;;;;5.60;3.90;;;;;;;31.17;39.57;97967.95;110108;1241;68487;-62
2023/09/25 09:55:22;;;;;;;6.20;4.60;;;;;;;31.21;39.66;97965.98;110117;1245;70148;-62
2023/09/25 09:57:51;;;;;;;6.90;3.80;;;;;;;31.41;39.28;97967.59;110117;1245;59750;-63
2023/09/25 10:00:21;;;;;;;4.60;3.70;;;;;;;31.68;39.17;97964.39;110176;1244;59762;-63
2023/09/25 10:02:51;;;;;;;7.50;4.10;;;;;;;32.05;38.20;97965.17;110321;1245;71965;-62
2023/09/25 10:05:21;;;;;;;5.30;4.00;;;;;;;32.65;37.89;97966.53;110130;1245;70178;-63
2023/09/25 10:08:11;;;;;;;6.30;3.30;;;;;;;33.30;36.72;97963.91;110178;1245;69625;-63
2023/09/25 10:10:45;;;;;;;6.60;3.90;;;;;;;33.97;36.52;97963.29;110273;1245;59676;-62
2023/09/25 10:13:26;;;;;;;4.80;3.10;;;;;;;34.65;35.00;97959.96;110141;1252;59650;-63
2023/09/25 10:16:00;;;;;;;4.90;3.50;;;;;;;34.73;34.00;97957.27;110113;1248;71981;-63
2023/09/25 10:18:32;;;;;;;6.20;3.40;;;;;;;34.78;33.08;97954.23;110171;1245;69838;-63
2023/09/25 10:21:10;;;;;;;5.00;3.40;;;;;;;35.07;33.74;97952.89;110151;1244;69380;-63
2023/09/25 10:23:46;;;;;;;4.30;3.30;;;;;;;35.65;33.22;97950.02;110128;1245;59684;-63
2023/09/25 10:26:22;;;;;;;5.20;3.40;;;;;;;36.04;32.31;97949.66;110111;1241;59725;-62
2023/09/25 10:29:14;;;;;;;6.20;3.80;;;;;;;36.28;31.89;97948.61;110122;1244;70882;-63
2023/09/25 10:31:47;;;;;;;5.20;4.40;;;;;;;36.43;30.91;97945.15;110130;1245;69820;-62
2023/09/25 10:34:16;;;;;;;5.00;3.80;;;;;;;36.09;29.74;97939.84;110109;1244;69247;-62
2023/09/25 10:36:50;;;;;;;3.90;3.30;;;;;;;35.78;29.90;97940.21;110095;1241;59701;-62
2023/09/25 10:39:19;;;;;;;4.50;3.00;;;;;;;35.74;29.88;97935.23;110145;1244;59736;-62
2023/09/25 10:42:09;;;;;;;5.10;2.80;;;;;;;35.54;30.00;97932.42;110098;1245;70671;-62
2023/09/25 10:44:38;;;;;;;4.70;3.30;;;;;;;35.93;29.87;97933.05;110097;1247;69766;-62
2023/09/25 10:47:09;;;;;;;5.70;3.40;;;;;;;36.20;30.26;97937.06;110109;1244;69883;-62
2023/09/25 10:49:39;;;;;;;4.50;3.20;;;;;;;36.72;29.03;97930.18;110116;1244;59670;-62
2023/09/25 10:52:09;;;;;;;6.10;3.50;;;;;;;36.64;28.30;97934.73;110093;1245;59796;-62
2023/09/25 10:54:38;;;;;;;4.30;3.00;;;;;;;36.48;28.30;97930.00;110113;1245;72109;-61
2023/09/25 10:57:07;;;;;;;3.90;3.50;;;;;;;36.11;27.58;97932.28;110124;1241;69268;-62
2023/09/25 10:59:37;;;;;;;4.70;3.50;;;;;;;36.30;28.24;97932.77;110108;1244;68505;-62
2023/09/25 11:02:07;;;;;;;3.20;2.90;;;;;;;36.21;28.11;97929.77;110090;1245;59748;-62
2023/09/25 11:04:36;;;;;;;4.70;3.40;;;;;;;36.44;27.18;97927.04;110150;1246;59703;-62
2023/09/25 11:07:06;;;;;;;4.90;3.00;;;;;;;36.27;27.60;97921.81;110108;1245;71646;-62
2023/09/25 11:09:35;;;;;;;5.70;2.90;;;;;;;36.56;27.55;97920.27;110146;1244;69223;-61
2023/09/25 11:12:05;;;;;;;4.70;3.30;;;;;;;36.76;27.43;97919.20;110108;1245;69131;-62
2023/09/25 11:14:37;;;;;;;3.30;2.70;;;;;;;36.69;27.17;97922.01;110109;1244;59741;-61
2023/09/25 11:17:06;;;;;;;3.70;2.90;;;;;;;36.76;27.18;97916.69;110120;1241;59672;-62
2023/09/25 11:19:36;;;;;;;4.60;2.70;;;;;;;36.74;27.29;97915.16;110124;1244;71937;-63
2023/09/25 11:22:05;;;;;;;4.10;3.00;;;;;;;37.07;26.74;97916.35;110139;1242;69457;-63
2023/09/25 11:24:34;;;;;;;4.90;3.00;;;;;;;37.42;27.52;97910.92;110209;1244;69272;-63
2023/09/25 11:27:08;;;;;;;4.90;3.20;;;;;;;37.64;27.05;97908.30;110115;1244;59681;-63
2023/09/25 11:29:37;;;;;;;5.00;3.30;;;;;;;37.57;27.29;97905.38;110159;1242;59705;-61
2023/09/25 11:32:06;;;;;;;4.50;3.10;;;;;;;37.20;26.74;97903.35;110128;1241;71852;-62
2023/09/25 11:34:38;;;;;;;4.00;3.00;;;;;;;37.36;26.66;97902.86;110121;1245;69304;-61
2023/09/25 11:37:07;;;;;;;3.90;2.90;;;;;;;37.20;25.98;97900.22;110105;1245;69880;-62
2023/09/25 11:39:37;;;;;;;3.40;2.70;;;;;;;37.39;26.18;97901.98;110109;1243;59737;-62
2023/09/25 11:42:07;;;;;;;5.70;3.60;;;;;;;37.11;26.16;97900.22;110114;1245;59742;-62